createdAt,value
2022-08-04T00:00:04.760Z,96238.31
2022-08-04T00:03:01.679Z,96227.28
2022-08-04T00:05:56.923Z,96220.47
2022-08-04T00:08:44.138Z,96227.56
2022-08-04T00:11:15.497Z,96223.88
2022-08-04T00:14:02.391Z,96222.31
2022-08-04T00:16:32.948Z,96211.56
2022-08-04T00:19:25.158Z,96211.09
2022-08-04T00:21:59.040Z,96220.75
2022-08-04T00:24:25.594Z,96214.75
2022-08-04T00:26:55.087Z,96212.06
2022-08-04T00:29:21.709Z,96216.03
2022-08-04T00:31:56.001Z,96211.75
2022-08-04T00:34:26.115Z,96211.72
2022-08-04T00:36:53.280Z,96210.63
2022-08-04T00:39:20.401Z,96206.19
2022-08-04T01:47:08.151Z,96175.41
2022-08-04T01:49:40.427Z,96169.38
2022-08-04T01:52:09.759Z,96169.84
2022-08-04T01:54:40.513Z,96173.47
2022-08-04T01:57:38.347Z,96176.81
2022-08-04T01:59:57.306Z,96166.03
2022-08-04T02:02:25.956Z,96160.50
2022-08-04T02:04:52.257Z,96155.25
2022-08-04T02:07:30.211Z,96159.06
2022-08-04T02:10:21.743Z,96153.34
2022-08-04T02:13:18.075Z,96151.44
2022-08-04T02:16:22.321Z,96143.06
2022-08-04T02:19:14.613Z,96142.28
2022-08-04T02:21:44.299Z,96138.81
2022-08-04T02:24:14.297Z,96137.88
2022-08-04T02:26:42.255Z,96134.72
2022-08-04T02:29:25.266Z,96134.59
2022-08-04T02:31:57.211Z,96132.97
2022-08-04T02:34:31.553Z,96122.69
2022-08-04T02:36:59.068Z,96129.16
2022-08-04T02:39:29.334Z,96129.97
2022-08-04T02:41:56.180Z,96124.28
2022-08-04T02:44:22.848Z,96125.38
2022-08-04T02:46:53.801Z,96119.53
2022-08-04T02:49:22.384Z,96114.81
2022-08-04T02:51:56.953Z,96114.34
2022-08-04T02:54:32.708Z,96114.16
2022-08-04T02:57:01.138Z,96116.00
2022-08-04T02:59:29.553Z,96115.81
2022-08-04T03:01:57.769Z,96104.00
2022-08-04T03:04:39.215Z,96102.84
2022-08-04T03:07:29.200Z,96104.75
2022-08-04T03:10:07.020Z,96105.25
2022-08-04T03:13:04.805Z,96106.66
2022-08-04T03:15:48.653Z,96108.56
2022-08-04T03:18:41.720Z,96101.59
2022-08-04T03:21:42.071Z,96110.75
2022-08-04T03:24:49.137Z,96109.25
2022-08-04T03:28:09.108Z,96112.69
2022-08-04T03:31:06.578Z,96103.34
2022-08-04T03:33:56.548Z,96102.25
2022-08-04T03:36:56.411Z,96101.94
2022-08-04T03:39:58.095Z,96097.34
2022-08-04T03:43:06.002Z,96101.84
2022-08-04T03:45:57.950Z,96099.63
2022-08-04T03:48:35.808Z,96098.06
2022-08-04T03:51:51.516Z,96100.59
2022-08-04T03:54:42.084Z,96109.13
2022-08-04T03:57:10.780Z,96095.06
2022-08-04T03:59:58.185Z,96089.84
2022-08-04T04:03:28.528Z,96091.09
2022-08-04T04:06:21.560Z,96094.88
2022-08-04T04:09:25.024Z,96086.34
2022-08-04T04:12:14.837Z,96090.91
2022-08-04T04:14:54.317Z,96092.34
2022-08-04T04:17:55.981Z,96093.47
2022-08-04T04:20:45.920Z,96089.34
2022-08-04T04:23:23.126Z,96092.50
2022-08-04T04:26:15.058Z,96090.28
2022-08-04T04:28:49.807Z,96095.66
2022-08-04T04:31:38.644Z,96090.44
2022-08-04T04:34:26.866Z,96097.09
2022-08-04T04:36:58.643Z,96094.84
2022-08-04T04:39:36.628Z,96093.88
2022-08-04T04:42:39.745Z,96097.03
2022-08-04T04:45:23.922Z,96092.44
2022-08-04T04:48:08.851Z,96094.81
2022-08-04T04:50:41.966Z,96099.38
2022-08-04T04:53:17.001Z,96102.72
2022-08-04T04:55:50.440Z,96100.19
2022-08-04T04:58:18.275Z,96105.03
2022-08-04T05:01:03.645Z,96099.81
2022-08-04T05:03:29.313Z,96099.78
2022-08-04T05:06:31.237Z,96102.84
2022-08-04T05:09:27.136Z,96109.97
2022-08-04T05:11:57.957Z,96106.31
2022-08-04T05:14:35.132Z,96102.16
2022-08-04T05:17:15.966Z,96106.59
2022-08-04T05:20:03.027Z,96108.16
2022-08-04T05:22:47.676Z,96109.75
2022-08-04T05:25:38.779Z,96106.59
2022-08-04T05:28:09.471Z,96112.09
2022-08-04T05:30:47.586Z,96115.38
2022-08-04T05:33:18.381Z,96110.47
2022-08-04T05:36:17.709Z,96107.16
2022-08-04T05:38:37.645Z,96108.97
2022-08-04T05:41:04.746Z,96113.13
2022-08-04T05:43:31.255Z,96110.75
2022-08-04T05:45:58.927Z,96110.94
2022-08-04T05:48:26.272Z,96114.06
2022-08-04T05:50:52.465Z,96108.78
2022-08-04T05:53:19.641Z,96108.66
2022-08-04T05:55:56.768Z,96107.16
2022-08-04T05:58:28.796Z,96115.97
2022-08-04T06:00:55.981Z,96118.38
2022-08-04T06:03:23.226Z,96112.44
2022-08-04T06:05:49.580Z,96118.09
2022-08-04T06:08:15.599Z,96114.97
2022-08-04T06:10:43.834Z,96117.34
2022-08-04T06:13:49.040Z,96122.03
2022-08-04T06:16:01.362Z,96121.41
2022-08-04T06:18:33.146Z,96121.34
2022-08-04T06:21:19.982Z,96126.03
2022-08-04T06:23:53.757Z,96121.63
2022-08-04T06:26:28.451Z,96121.25
2022-08-04T06:28:56.484Z,96121.03
2022-08-04T06:32:26.791Z,96121.22
2022-08-04T06:34:41.316Z,96122.38
2022-08-04T06:37:08.548Z,96123.69
2022-08-04T06:39:36.025Z,96123.69
2022-08-04T06:42:21.453Z,96127.22
2022-08-04T06:44:51.059Z,96126.69
2022-08-04T06:47:21.688Z,96136.84
2022-08-04T06:51:32.678Z,96129.66
2022-08-04T06:52:36.919Z,96125.84
2022-08-04T06:55:03.850Z,96128.00
2022-08-04T06:57:31.174Z,96132.41
2022-08-04T07:00:03.021Z,96131.84
2022-08-04T07:02:32.543Z,96126.09
2022-08-04T07:04:58.613Z,96129.78
2022-08-04T07:07:37.258Z,96132.03
2022-08-04T07:10:11.986Z,96134.97
2022-08-04T07:12:45.200Z,96132.28
2022-08-04T07:15:14.360Z,96129.59
2022-08-04T07:17:40.965Z,96143.00
2022-08-04T07:20:08.655Z,96118.91
2022-08-04T07:22:35.724Z,96132.19
2022-08-04T07:25:01.631Z,96119.69
2022-08-04T07:27:48.471Z,96130.84
2022-08-04T07:30:14.465Z,96136.91
2022-08-04T07:32:42.996Z,96125.09
2022-08-04T07:35:34.503Z,96129.25
2022-08-04T07:37:57.425Z,96128.38
2022-08-04T07:40:24.910Z,96126.56
2022-08-04T07:42:51.086Z,96128.13
2022-08-04T07:45:20.723Z,96125.09
2022-08-04T07:48:04.666Z,96125.31
2022-08-04T07:50:33.004Z,96128.13
2022-08-04T07:53:52.889Z,96128.78
2022-08-04T07:55:48.220Z,96126.91
2022-08-04T07:58:14.122Z,96128.69
2022-08-04T08:00:40.284Z,96130.06
2022-08-04T08:03:07.420Z,96120.81
2022-08-04T08:05:33.354Z,96135.91
2022-08-04T08:07:59.923Z,96131.84
2022-08-04T08:10:25.814Z,96133.09
2022-08-04T08:12:52.724Z,96124.06
2022-08-04T08:15:19.625Z,96127.31
2022-08-04T08:18:00.131Z,96127.75
2022-08-04T08:20:31.121Z,96129.09
2022-08-04T08:22:59.091Z,96136.50
2022-08-04T08:25:25.123Z,96133.72
2022-08-04T08:27:56.395Z,96136.41
2022-08-04T08:30:24.289Z,96133.91
2022-08-04T08:32:50.828Z,96137.50
2022-08-04T08:35:17.785Z,96140.44
2022-08-04T08:37:52.264Z,96134.00
2022-08-04T08:40:40.111Z,96134.22
2022-08-04T08:44:04.977Z,96132.72
2022-08-04T08:46:48.969Z,96143.69
2022-08-04T08:50:00.515Z,96141.53
2022-08-04T08:52:56.348Z,96146.81
2022-08-04T08:55:37.129Z,96142.91
2022-08-04T08:58:16.360Z,96142.69
2022-08-04T09:01:10.210Z,96147.59
2022-08-04T09:03:50.975Z,96144.00
2022-08-04T09:06:47.055Z,96142.53
2022-08-04T09:09:19.132Z,96146.38
2022-08-04T09:11:55.385Z,96144.09
2022-08-04T09:14:32.903Z,96151.06
2022-08-04T09:17:20.132Z,96147.06
2022-08-04T09:19:55.457Z,96147.47
2022-08-04T09:22:47.288Z,96144.53
2022-08-04T09:25:24.911Z,96142.78
2022-08-04T09:27:57.563Z,96138.88
2022-08-04T09:30:45.342Z,96134.63
2022-08-04T09:33:46.169Z,96145.84
2022-08-04T09:36:42.375Z,96153.38
2022-08-04T09:39:24.275Z,96129.91
2022-08-04T09:42:17.932Z,96138.06
2022-08-04T09:45:17.056Z,96138.66
2022-08-04T09:48:02.490Z,96133.84
2022-08-04T09:50:38.263Z,96137.94
2022-08-04T09:53:41.790Z,96135.03
2022-08-04T09:56:25.277Z,96143.88
2022-08-04T09:59:14.924Z,96133.22
2022-08-04T10:01:41.719Z,96136.41
2022-08-04T10:04:11.449Z,96140.81
2022-08-04T10:07:04.420Z,96141.47
2022-08-04T10:09:42.186Z,96147.16
2022-08-04T10:12:33.936Z,96143.34
2022-08-04T10:15:14.924Z,96151.75
2022-08-04T10:17:53.460Z,96135.00
2022-08-04T10:20:46.439Z,96139.53
2022-08-04T10:23:17.313Z,96142.91
2022-08-04T10:26:06.052Z,96145.25
2022-08-04T10:28:48.875Z,96142.28
2022-08-04T10:31:37.100Z,96138.13
2022-08-04T10:34:13.628Z,96140.41
2022-08-04T10:36:48.932Z,96138.69
2022-08-04T10:39:42.631Z,96129.59
2022-08-04T10:42:26.684Z,96134.84
2022-08-04T10:45:22.996Z,96142.25
2022-08-04T10:48:01.598Z,96145.53
2022-08-04T10:50:28.534Z,96144.84
2022-08-04T10:53:05.255Z,96138.59
2022-08-04T10:56:07.612Z,96139.09
2022-08-04T10:58:47.435Z,96141.72
2022-08-04T11:02:00.119Z,96150.75
2022-08-04T11:04:36.924Z,96155.22
2022-08-04T11:07:03.325Z,96151.25
2022-08-04T11:09:33.062Z,96148.22
2022-08-04T11:12:23.954Z,96146.78
2022-08-04T11:14:57.733Z,96156.19
2022-08-04T11:17:34.877Z,96147.16
2022-08-04T11:20:35.499Z,96143.28
2022-08-04T11:23:16.548Z,96159.06
2022-08-04T11:26:01.105Z,96146.66
2022-08-04T11:28:55.836Z,96162.44
2022-08-04T11:31:32.684Z,96153.69
2022-08-04T11:34:07.674Z,96158.47
2022-08-04T11:36:50.177Z,96159.41
2022-08-04T11:39:29.892Z,96166.50
2022-08-04T11:42:08.249Z,96160.88
2022-08-04T11:44:47.298Z,96165.16
2022-08-04T11:47:32.267Z,96170.06
2022-08-04T11:50:04.647Z,96163.19
2022-08-04T11:52:33.463Z,96167.28
2022-08-04T11:55:03.958Z,96172.69
2022-08-04T11:57:36.020Z,96172.38
2022-08-04T12:00:07.632Z,96180.94
2022-08-04T12:03:00.942Z,96176.03
2022-08-04T12:05:36.781Z,96180.91
2022-08-04T12:08:06.453Z,96175.81
2022-08-04T12:10:50.935Z,96181.06
2022-08-04T12:13:25.784Z,96178.97
2022-08-04T12:16:09.891Z,96176.41
2022-08-04T12:18:46.324Z,96172.25
2022-08-04T12:21:22.524Z,96176.34
2022-08-04T12:23:51.691Z,96175.97
2022-08-04T12:26:37.494Z,96174.91
2022-08-04T12:29:10.021Z,96174.81
2022-08-04T12:31:44.694Z,96183.44
2022-08-04T12:34:19.495Z,96180.44
2022-08-04T12:37:10.175Z,96179.72
2022-08-04T12:40:21.707Z,96179.81
2022-08-04T12:43:00.004Z,96180.44
2022-08-04T12:45:26.409Z,96175.28
2022-08-04T12:47:56.170Z,96167.53
2022-08-04T12:50:23.585Z,96168.03
2022-08-04T12:53:03.725Z,96163.75
2022-08-04T12:55:34.177Z,96166.34
2022-08-04T12:58:03.612Z,96167.34
2022-08-04T13:00:39.980Z,96161.28
2022-08-04T13:03:14.883Z,96151.38
2022-08-04T13:05:42.114Z,96153.63
2022-08-04T13:08:10.030Z,96151.59
2022-08-04T13:10:41.933Z,96156.09
2022-08-04T13:13:16.319Z,96151.72
2022-08-04T13:15:47.320Z,96157.59
2022-08-04T13:18:27.359Z,96157.59
2022-08-04T13:21:08.288Z,96152.50
2022-08-04T13:24:09.969Z,96158.91
2022-08-04T13:26:42.532Z,96153.66
2022-08-04T13:29:21.836Z,96150.41
2022-08-04T13:32:09.229Z,96140.38
2022-08-04T13:34:39.471Z,96132.66
2022-08-04T13:37:07.072Z,96129.06
2022-08-04T13:39:34.683Z,96133.44
2022-08-04T13:42:04.174Z,96136.38
2022-08-04T13:44:33.398Z,96135.59
2022-08-04T13:47:05.154Z,96136.81
2022-08-04T13:49:48.610Z,96140.63
2022-08-04T13:52:17.318Z,96147.25
2022-08-04T13:54:47.247Z,96139.00
2022-08-04T13:57:31.043Z,96136.47
2022-08-04T14:00:00.853Z,96138.22
2022-08-04T14:02:58.278Z,96136.03
2022-08-04T14:05:30.233Z,96140.16
2022-08-04T14:08:29.025Z,96138.66
2022-08-04T14:10:57.820Z,96146.59
2022-08-04T14:13:41.152Z,96147.50
2022-08-04T14:16:19.592Z,96152.38
2022-08-04T14:18:46.324Z,96151.81
2022-08-04T14:21:15.748Z,96143.16
2022-08-04T14:23:53.234Z,96141.56
2022-08-04T14:26:31.492Z,96142.88
2022-08-04T14:29:27.553Z,96140.88
2022-08-04T14:32:12.509Z,96131.41
2022-08-04T14:34:45.193Z,96132.94
2022-08-04T14:37:18.656Z,96134.13
2022-08-04T14:40:19.294Z,96138.47
2022-08-04T14:42:55.080Z,96138.19
2022-08-04T14:45:55.061Z,96134.69
2022-08-04T14:48:21.658Z,96137.13
2022-08-04T14:50:49.657Z,96131.25
2022-08-04T14:53:17.547Z,96143.03
2022-08-04T14:55:52.666Z,96129.97
2022-08-04T14:58:34.630Z,96135.00
2022-08-04T15:01:10.513Z,96127.13
2022-08-04T15:03:49.854Z,96128.91
2022-08-04T15:06:22.333Z,96129.06
2022-08-04T15:08:50.455Z,96131.41
2022-08-04T15:11:23.309Z,96138.31
2022-08-04T15:13:54.371Z,96134.06
2022-08-04T15:16:23.330Z,96131.72
2022-08-04T15:18:50.078Z,96134.44
2022-08-04T15:21:17.058Z,96137.06
2022-08-04T15:23:43.200Z,96134.72
2022-08-04T15:26:13.113Z,96138.63
2022-08-04T15:28:41.591Z,96136.72
2022-08-04T15:32:01.682Z,96136.69
2022-08-04T15:33:56.268Z,96135.91
2022-08-04T15:36:57.584Z,96137.00
2022-08-04T15:39:45.607Z,96136.31
2022-08-04T15:42:23.162Z,96125.31
2022-08-04T15:45:04.804Z,96120.56
2022-08-04T15:47:31.371Z,96124.78
2022-08-04T15:50:14.352Z,96132.84
2022-08-04T15:53:00.689Z,96128.00
2022-08-04T15:55:39.623Z,96136.03
2022-08-04T15:58:07.213Z,96139.00
2022-08-04T16:00:48.789Z,96130.84
2022-08-04T16:03:58.080Z,96130.72
2022-08-04T16:06:21.576Z,96124.81
2022-08-04T16:08:47.341Z,96124.72
2022-08-04T16:11:31.785Z,96128.38
2022-08-04T16:13:57.822Z,96134.38
2022-08-04T16:16:27.599Z,96125.28
2022-08-04T16:18:54.269Z,96126.03
2022-08-04T16:21:24.690Z,96132.44
2022-08-04T16:23:55.951Z,96127.84
2022-08-04T16:26:45.244Z,96129.06
2022-08-04T16:29:35.056Z,96123.25
2022-08-04T16:32:03.960Z,96122.47
2022-08-04T16:34:53.906Z,96114.97
2022-08-04T16:37:22.375Z,96125.63
2022-08-04T16:39:50.290Z,96117.84
2022-08-04T16:42:29.537Z,96125.75
2022-08-04T16:45:11.335Z,96121.84
2022-08-04T16:47:48.890Z,96126.97
2022-08-04T16:50:16.455Z,96127.34
2022-08-04T16:52:44.326Z,96120.69
2022-08-04T16:55:11.333Z,96123.41
2022-08-04T16:57:38.903Z,96127.50
2022-08-04T17:00:06.631Z,96125.66
2022-08-04T17:02:32.920Z,96132.91
2022-08-04T17:05:06.965Z,96133.25
2022-08-04T17:08:02.209Z,96130.59
2022-08-04T17:10:41.979Z,96138.75
2022-08-04T17:14:03.415Z,96153.16
2022-08-04T17:16:20.358Z,96164.72
2022-08-04T17:18:50.102Z,96175.34
2022-08-04T17:21:28.719Z,96184.25
2022-08-04T17:24:14.837Z,96202.34
2022-08-04T17:26:53.802Z,96211.84
2022-08-04T17:29:43.158Z,96222.78
2022-08-04T17:32:19.960Z,96212.84
2022-08-04T17:34:50.583Z,96210.91
2022-08-04T17:37:38.070Z,96206.72
2022-08-04T17:40:18.490Z,96192.59
2022-08-04T17:44:04.634Z,96189.41
2022-08-04T17:46:28.984Z,96170.94
2022-08-04T17:49:09.342Z,96149.78
2022-08-04T17:52:02.661Z,96135.44
2022-08-04T17:54:36.694Z,96145.06
2022-08-04T17:57:22.389Z,96148.00
2022-08-04T17:59:56.725Z,96134.31
2022-08-04T18:02:34.090Z,96124.94
2022-08-04T18:05:07.661Z,96116.25
2022-08-04T18:08:40.282Z,96115.16
2022-08-04T18:10:56.878Z,96108.88
2022-08-04T18:13:25.376Z,96110.72
2022-08-04T18:16:00.754Z,96098.53
2022-08-04T18:18:29.089Z,96083.91
2022-08-04T18:20:55.348Z,96077.28
2022-08-04T18:23:31.326Z,96065.69
2022-08-04T18:25:59.071Z,96063.22
2022-08-04T18:28:27.918Z,96066.19
2022-08-04T18:30:56.543Z,96071.94
2022-08-04T18:33:40.042Z,96075.50
2022-08-04T18:36:37.291Z,96074.69
2022-08-04T18:38:55.461Z,96076.25
2022-08-04T18:41:24.775Z,96092.84
2022-08-04T18:43:55.965Z,96094.69
2022-08-04T18:46:27.095Z,96099.28
2022-08-04T18:48:53.814Z,96095.00
2022-08-04T18:51:23.905Z,96097.88
2022-08-04T18:53:54.711Z,96104.38
2022-08-04T18:56:29.676Z,96112.50
2022-08-04T18:59:02.933Z,96109.38
2022-08-04T19:02:13.698Z,96114.03
2022-08-04T19:04:33.119Z,96115.88
2022-08-04T19:07:23.100Z,96129.13
2022-08-04T19:09:52.167Z,96129.88
2022-08-04T19:12:26.882Z,96129.25
2022-08-04T19:14:57.786Z,96144.75
2022-08-04T19:17:54.090Z,96145.88
2022-08-04T19:20:16.031Z,96147.94
2022-08-04T19:24:29.422Z,96144.88
2022-08-04T19:25:58.705Z,96153.56
2022-08-04T19:28:25.082Z,96159.91
2022-08-04T19:30:54.132Z,96160.91
2022-08-04T19:33:25.051Z,96156.81
2022-08-04T19:35:51.478Z,96159.94
2022-08-04T19:38:18.254Z,96157.69
2022-08-04T19:40:52.400Z,96158.75
2022-08-04T19:43:20.167Z,96159.28
2022-08-04T19:45:46.191Z,96156.72
2022-08-04T19:48:18.579Z,96165.25
2022-08-04T19:50:48.367Z,96168.00
2022-08-04T19:53:19.457Z,96163.06
2022-08-04T19:55:49.756Z,96160.50
2022-08-04T19:58:17.082Z,96162.84
2022-08-04T20:00:44.672Z,96162.44
2022-08-04T20:03:20.392Z,96169.06
2022-08-04T20:05:53.971Z,96176.19
2022-08-04T20:08:23.232Z,96175.13
2022-08-04T20:13:38.668Z,96177.31
2022-08-04T20:16:26.208Z,96178.75
2022-08-04T20:18:55.912Z,96173.38
2022-08-04T20:21:53.445Z,96169.16
2022-08-04T20:24:39.033Z,96170.72
2022-08-04T20:26:57.089Z,96164.06
2022-08-04T20:29:39.917Z,96170.44
2022-08-04T20:32:08.771Z,96184.03
2022-08-04T20:34:35.669Z,96181.72
2022-08-04T20:37:02.371Z,96193.88
2022-08-04T20:39:28.567Z,96191.66
2022-08-04T20:41:55.882Z,96190.88
2022-08-04T20:44:24.327Z,96192.63
2022-08-04T20:46:50.385Z,96191.84
2022-08-04T20:49:16.773Z,96205.16
2022-08-04T20:51:43.580Z,96207.53
2022-08-04T20:54:16.936Z,96210.69
2022-08-04T20:56:53.087Z,96211.47
2022-08-04T20:59:20.108Z,96210.22
2022-08-04T21:01:48.977Z,96215.94
2022-08-04T21:04:30.635Z,96226.38
2022-08-04T21:06:58.191Z,96225.25
2022-08-04T21:09:37.087Z,96227.81
2022-08-04T21:12:06.261Z,96225.44
2022-08-04T21:14:32.540Z,96222.28
2022-08-04T21:16:59.083Z,96222.13
2022-08-04T21:19:26.927Z,96218.31
2022-08-04T21:21:54.131Z,96231.91
2022-08-04T21:24:21.130Z,96233.34
2022-08-04T21:26:56.328Z,96231.63
2022-08-04T21:29:23.186Z,96234.78
2022-08-04T21:31:50.402Z,96232.69
2022-08-04T21:34:17.093Z,96232.34
2022-08-04T21:37:03.000Z,96235.53
2022-08-04T21:39:32.580Z,96243.44
2022-08-04T21:42:27.714Z,96246.94
2022-08-04T21:44:44.464Z,96251.94
2022-08-04T21:47:23.279Z,96261.44
2022-08-04T21:49:56.493Z,96256.22
2022-08-04T21:52:23.813Z,96258.72
2022-08-04T21:54:49.642Z,96266.66
2022-08-04T21:57:21.528Z,96250.53
2022-08-04T21:59:50.942Z,96263.50
2022-08-04T22:02:16.865Z,96270.31
2022-08-04T22:04:43.627Z,96278.03
2022-08-04T22:07:09.642Z,96280.38
2022-08-04T22:09:38.911Z,96289.03
2022-08-04T22:12:11.605Z,96283.53
2022-08-04T22:14:38.621Z,96283.06
2022-08-04T22:17:04.741Z,96275.28
2022-08-04T22:19:39.928Z,96283.00
2022-08-04T22:22:25.181Z,96284.09
2022-08-04T22:24:52.789Z,96305.09
2022-08-04T22:27:37.534Z,96306.19
2022-08-04T22:30:13.328Z,96303.13
2022-08-04T22:32:43.798Z,96302.56
2022-08-04T22:35:33.349Z,96305.75
2022-08-04T22:38:05.590Z,96297.53
2022-08-04T22:40:35.475Z,96296.94
2022-08-04T22:43:02.680Z,96293.78
2022-08-04T22:45:44.542Z,96283.06
2022-08-04T22:48:10.921Z,96282.53
2022-08-04T22:50:36.822Z,96279.84
2022-08-04T22:53:03.212Z,96263.88
2022-08-04T22:56:07.119Z,96256.00
2022-08-04T22:58:16.790Z,96255.56
2022-08-04T23:00:43.840Z,96264.72
2022-08-04T23:03:37.444Z,96271.16
2022-08-04T23:06:10.501Z,96267.66
2022-08-04T23:08:38.539Z,96282.06
2022-08-04T23:11:09.005Z,96286.22
2022-08-04T23:13:35.431Z,96278.53
2022-08-04T23:16:06.551Z,96282.34
2022-08-04T23:18:41.785Z,96279.19
2022-08-04T23:21:08.823Z,96274.91
2022-08-04T23:23:35.893Z,96272.22
2022-08-04T23:26:14.787Z,96277.00
2022-08-04T23:28:41.989Z,96275.56
2022-08-04T23:31:10.265Z,96273.66
2022-08-04T23:33:50.523Z,96284.78
2022-08-04T23:36:18.067Z,96271.94
2022-08-04T23:38:44.632Z,96245.94
2022-08-04T23:41:14.467Z,96217.03
2022-08-04T23:43:54.953Z,96223.09
2022-08-04T23:46:21.967Z,96232.63
2022-08-04T23:48:48.170Z,96215.56
2022-08-04T23:51:15.580Z,96192.91
2022-08-04T23:54:02.957Z,96177.69
2022-08-04T23:56:33.266Z,96186.22
2022-08-04T23:59:03.412Z,96204.03
